Airport ICAO


21:55 UTC

13°C

Clear skies


An affordable passengers' Moving Map for your aircraft. Made for the iPad and the iPhone
More information here

LFMD Mandelieu


Cannes FRANCE   VFR CAVOK


METAR LFMD 132130Z AUTO 35003KT 320V050 CAVOK 13/12 Q1027 NOSIG 0h25min

TAF LFMD 131400Z 1315/1415 VRB02KT CAVOK PROB40 TEMPO 1400/1409 BKN014 7h55min





NOTAMS

OPEN